EZY396 EGPH-EGSS
Flight info
| Callsign | EZY396 |
|---|---|
| Flight time | 0h 56m |
| Altitude | 29000 |
| Route | GOSAM P600 FENIK L612 NAVSO DCT AKOMU DCT VAMEB UL612 LISTO |
| Aircraft | A320/M-SDE3FGHIRWY/LB1 |
Departure
| Time | 2026-04-22 00:04 |
|---|---|
| Airport | Edinburgh Airport (EGPH) |
Arrival
| Time | 2026-04-22 01:01 |
|---|---|
| Airport | London Stansted Airport (EGSS) |
| Time | Latitude | Longitude | Altitude | Speed | Heading |
|---|---|---|---|---|---|
| 2026-04-21 23:46 | 55.94906 | -3.36496 | 113 ft | 0 kts | 148° |
| 2026-04-21 23:58 | 55.94918 | -3.36509 | 112 ft | 4 kts | 149° |
| 2026-04-21 23:58 | 55.94937 | -3.36530 | 114 ft | 4 kts | 155° |
| 2026-04-21 23:58 | 55.94960 | -3.36535 | 115 ft | 4 kts | 209° |
| 2026-04-21 23:58 | 55.94976 | -3.36509 | 112 ft | 1 kts | 238° |
| 2026-04-21 23:59 | 55.94976 | -3.36508 | 112 ft | 0 kts | 238° |
| 2026-04-22 00:00 | 55.94976 | -3.36510 | 116 ft | 1 kts | 239° |
| 2026-04-22 00:00 | 55.94939 | -3.36616 | 113 ft | 16 kts | 238° |
| 2026-04-22 00:01 | 55.94897 | -3.36771 | 116 ft | 13 kts | 269° |
| 2026-04-22 00:01 | 55.94922 | -3.36897 | 116 ft | 11 kts | 252° |
| 2026-04-22 00:01 | 55.94874 | -3.37047 | 116 ft | 20 kts | 239° |
| 2026-04-22 00:01 | 55.94793 | -3.37286 | 116 ft | 22 kts | 239° |
| 2026-04-22 00:02 | 55.94717 | -3.37512 | 115 ft | 20 kts | 239° |
| 2026-04-22 00:02 | 55.94632 | -3.37763 | 115 ft | 30 kts | 238° |
| 2026-04-22 00:02 | 55.94529 | -3.38067 | 116 ft | 29 kts | 238° |
| 2026-04-22 00:02 | 55.94429 | -3.38361 | 116 ft | 27 kts | 239° |
| 2026-04-22 00:03 | 55.94347 | -3.38605 | 115 ft | 18 kts | 238° |
| 2026-04-22 00:03 | 55.94288 | -3.38778 | 114 ft | 13 kts | 243° |
| 2026-04-22 00:03 | 55.94313 | -3.38900 | 114 ft | 11 kts | 327° |
| 2026-04-22 00:03 | 55.94380 | -3.38966 | 114 ft | 11 kts | 344° |
| 2026-04-22 00:04 | 55.94450 | -3.38871 | 114 ft | 25 kts | 58° |
| 2026-04-22 00:04 | 55.94677 | -3.38202 | 114 ft | 98 kts | 58° |
| 2026-04-22 00:04 | 55.95129 | -3.36857 | 156 ft | 147 kts | 58° |
| 2026-04-22 00:04 | 55.95661 | -3.35347 | 911 ft | 142 kts | 59° |
| 2026-04-22 00:05 | 55.96245 | -3.33953 | 1680 ft | 142 kts | 45° |
| 2026-04-22 00:05 | 55.97034 | -3.32681 | 2037 ft | 163 kts | 44° |
| 2026-04-22 00:05 | 55.97893 | -3.31266 | 2566 ft | 174 kts | 45° |
| 2026-04-22 00:05 | 55.98817 | -3.29734 | 2999 ft | 192 kts | 46° |
| 2026-04-22 00:06 | 55.99914 | -3.28276 | 3724 ft | 200 kts | 29° |
| 2026-04-22 00:06 | 56.01326 | -3.27719 | 4344 ft | 218 kts | 3° |
| 2026-04-22 00:06 | 56.02850 | -3.28372 | 5008 ft | 236 kts | 336° |
| 2026-04-22 00:06 | 56.04107 | -3.30412 | 5582 ft | 256 kts | 302° |
| 2026-04-22 00:07 | 56.04625 | -3.33525 | 6212 ft | 270 kts | 270° |
| 2026-04-22 00:07 | 56.04191 | -3.36822 | 6850 ft | 277 kts | 237° |
| 2026-04-22 00:07 | 56.03125 | -3.39687 | 7709 ft | 278 kts | 232° |
| 2026-04-22 00:07 | 56.02130 | -3.42673 | 8583 ft | 283 kts | 243° |
| 2026-04-22 00:08 | 56.01509 | -3.46042 | 9477 ft | 286 kts | 252° |
| 2026-04-22 00:08 | 56.00973 | -3.49478 | 10333 ft | 289 kts | 253° |
| 2026-04-22 00:08 | 56.00452 | -3.53027 | 10810 ft | 306 kts | 253° |
| 2026-04-22 00:08 | 55.99901 | -3.56807 | 11063 ft | 330 kts | 254° |
| 2026-04-22 00:09 | 55.99302 | -3.60965 | 11348 ft | 351 kts | 254° |
| 2026-04-22 00:09 | 55.98698 | -3.65187 | 11946 ft | 359 kts | 254° |
| 2026-04-22 00:09 | 55.98079 | -3.69538 | 12674 ft | 363 kts | 254° |
| 2026-04-22 00:09 | 55.97455 | -3.73940 | 13423 ft | 367 kts | 254° |
| 2026-04-22 00:10 | 55.96821 | -3.78376 | 14162 ft | 371 kts | 254° |
| 2026-04-22 00:10 | 55.96177 | -3.82857 | 14831 ft | 374 kts | 254° |
| 2026-04-22 00:10 | 55.95522 | -3.87367 | 15487 ft | 377 kts | 254° |
| 2026-04-22 00:10 | 55.94855 | -3.91907 | 16150 ft | 380 kts | 253° |
| 2026-04-22 00:11 | 55.94172 | -3.96487 | 16805 ft | 382 kts | 251° |
| 2026-04-22 00:11 | 55.93101 | -4.00808 | 17418 ft | 382 kts | 236° |
| 2026-04-22 00:11 | 55.91423 | -4.04472 | 18046 ft | 382 kts | 220° |
| 2026-04-22 00:11 | 55.89301 | -4.07298 | 18682 ft | 382 kts | 212° |
| 2026-04-22 00:12 | 55.87098 | -4.09972 | 19269 ft | 384 kts | 212° |
| 2026-04-22 00:12 | 55.84878 | -4.12682 | 19827 ft | 387 kts | 212° |
| 2026-04-22 00:12 | 55.82656 | -4.15404 | 20381 ft | 390 kts | 212° |
| 2026-04-22 00:12 | 55.80413 | -4.18154 | 20933 ft | 393 kts | 212° |
| 2026-04-22 00:13 | 55.78141 | -4.20906 | 21478 ft | 395 kts | 210° |
| 2026-04-22 00:13 | 55.75694 | -4.23108 | 21998 ft | 396 kts | 198° |
| 2026-04-22 00:13 | 55.73081 | -4.24414 | 22502 ft | 396 kts | 187° |
| 2026-04-22 00:13 | 55.70336 | -4.24762 | 22997 ft | 397 kts | 176° |
| 2026-04-22 00:14 | 55.67601 | -4.24114 | 23465 ft | 398 kts | 165° |
| 2026-04-22 00:14 | 55.64971 | -4.22566 | 23937 ft | 400 kts | 155° |
| 2026-04-22 00:14 | 55.62492 | -4.20304 | 24345 ft | 402 kts | 149° |
| 2026-04-22 00:14 | 55.60039 | -4.17882 | 24709 ft | 406 kts | 150° |
| 2026-04-22 00:15 | 55.57552 | -4.15450 | 25038 ft | 410 kts | 150° |
| 2026-04-22 00:15 | 55.55045 | -4.13012 | 25393 ft | 413 kts | 150° |
| 2026-04-22 00:15 | 55.52517 | -4.10560 | 25728 ft | 416 kts | 151° |
| 2026-04-22 00:15 | 55.49969 | -4.08085 | 26041 ft | 420 kts | 151° |
| 2026-04-22 00:16 | 55.47399 | -4.05589 | 26350 ft | 424 kts | 151° |
| 2026-04-22 00:16 | 55.44799 | -4.03072 | 26653 ft | 428 kts | 152° |
| 2026-04-22 00:16 | 55.42166 | -4.00526 | 26826 ft | 435 kts | 152° |
| 2026-04-22 00:16 | 55.39491 | -3.97940 | 27076 ft | 440 kts | 152° |
| 2026-04-22 00:17 | 55.36834 | -3.95367 | 27374 ft | 443 kts | 152° |
| 2026-04-22 00:17 | 55.34124 | -3.92747 | 27687 ft | 446 kts | 152° |
| 2026-04-22 00:17 | 55.31395 | -3.90114 | 27975 ft | 449 kts | 152° |
| 2026-04-22 00:17 | 55.28638 | -3.87463 | 28260 ft | 452 kts | 152° |
| 2026-04-22 00:18 | 55.25867 | -3.84807 | 28589 ft | 454 kts | 152° |
| 2026-04-22 00:18 | 55.23092 | -3.82145 | 29005 ft | 454 kts | 152° |
| 2026-04-22 00:18 | 55.20308 | -3.79528 | 29324 ft | 455 kts | 153° |
| 2026-04-22 00:18 | 55.17471 | -3.77004 | 29489 ft | 459 kts | 155° |
| 2026-04-22 00:19 | 55.14612 | -3.74566 | 29513 ft | 456 kts | 156° |
| 2026-04-22 00:19 | 55.08931 | -3.69831 | 29509 ft | 454 kts | 156° |
| 2026-04-22 00:20 | 55.03245 | -3.65042 | 29502 ft | 454 kts | 155° |
| 2026-04-22 00:20 | 54.97570 | -3.60196 | 29503 ft | 454 kts | 155° |
| 2026-04-22 00:21 | 54.91856 | -3.55313 | 29489 ft | 463 kts | 156° |
| 2026-04-22 00:21 | 54.86040 | -3.50374 | 29470 ft | 467 kts | 156° |
| 2026-04-22 00:22 | 54.80190 | -3.45433 | 29461 ft | 468 kts | 156° |
| 2026-04-22 00:22 | 54.74318 | -3.40490 | 29468 ft | 469 kts | 156° |
| 2026-04-22 00:23 | 54.68481 | -3.35590 | 29443 ft | 470 kts | 157° |
| 2026-04-22 00:23 | 54.62584 | -3.30655 | 29452 ft | 472 kts | 157° |
| 2026-04-22 00:24 | 54.56657 | -3.25714 | 29446 ft | 474 kts | 157° |
| 2026-04-22 00:24 | 54.50705 | -3.20769 | 29469 ft | 474 kts | 156° |
| 2026-04-22 00:25 | 54.44776 | -3.15862 | 29475 ft | 472 kts | 156° |
| 2026-04-22 00:25 | 54.38853 | -3.10968 | 29437 ft | 473 kts | 157° |
| 2026-04-22 00:26 | 54.32918 | -3.06077 | 29434 ft | 474 kts | 157° |
| 2026-04-22 00:26 | 54.27004 | -3.01223 | 29434 ft | 474 kts | 157° |
| 2026-04-22 00:27 | 54.21056 | -2.96353 | 29433 ft | 474 kts | 157° |
| 2026-04-22 00:27 | 54.15090 | -2.91538 | 29420 ft | 474 kts | 158° |
| 2026-04-22 00:28 | 54.09021 | -2.87071 | 29414 ft | 475 kts | 160° |
| 2026-04-22 00:28 | 54.02920 | -2.82778 | 29418 ft | 475 kts | 160° |
| 2026-04-22 00:29 | 53.96810 | -2.78422 | 29415 ft | 475 kts | 160° |
| 2026-04-22 00:29 | 53.90728 | -2.74010 | 29400 ft | 475 kts | 160° |
| 2026-04-22 00:30 | 53.84654 | -2.69592 | 29407 ft | 475 kts | 160° |
| 2026-04-22 00:30 | 53.78573 | -2.65227 | 29405 ft | 474 kts | 160° |
| 2026-04-22 00:31 | 53.72488 | -2.60881 | 29406 ft | 474 kts | 160° |
| 2026-04-22 00:31 | 53.66457 | -2.56569 | 29395 ft | 475 kts | 160° |
| 2026-04-22 00:32 | 53.60355 | -2.52234 | 29396 ft | 475 kts | 160° |
| 2026-04-22 00:32 | 53.54266 | -2.47912 | 29398 ft | 476 kts | 160° |
| 2026-04-22 00:33 | 53.48160 | -2.43595 | 29394 ft | 476 kts | 160° |
| 2026-04-22 00:33 | 53.42061 | -2.39290 | 29394 ft | 475 kts | 160° |
| 2026-04-22 00:34 | 53.36985 | -2.35717 | 29392 ft | 475 kts | 160° |
| 2026-04-22 00:34 | 53.30886 | -2.31451 | 29392 ft | 475 kts | 160° |
| 2026-04-22 00:35 | 53.24783 | -2.27197 | 29391 ft | 475 kts | 160° |
| 2026-04-22 00:35 | 53.18725 | -2.22977 | 29382 ft | 475 kts | 159° |
| 2026-04-22 00:36 | 53.13050 | -2.17310 | 29383 ft | 479 kts | 141° |
| 2026-04-22 00:36 | 53.08326 | -2.09499 | 29380 ft | 479 kts | 134° |
| 2026-04-22 00:37 | 53.03689 | -2.01524 | 29391 ft | 479 kts | 134° |
| 2026-04-22 00:37 | 52.99044 | -1.93581 | 29359 ft | 480 kts | 134° |
| 2026-04-22 00:38 | 52.94397 | -1.85639 | 29364 ft | 480 kts | 134° |
| 2026-04-22 00:38 | 52.89770 | -1.77732 | 29375 ft | 480 kts | 134° |
| 2026-04-22 00:38 | 52.87441 | -1.73761 | 29126 ft | 481 kts | 134° |
| 2026-04-22 00:39 | 52.85107 | -1.69797 | 28852 ft | 481 kts | 134° |
| 2026-04-22 00:39 | 52.82767 | -1.65838 | 28577 ft | 479 kts | 134° |
| 2026-04-22 00:39 | 52.80439 | -1.61914 | 28308 ft | 478 kts | 134° |
| 2026-04-22 00:39 | 52.78115 | -1.57995 | 28042 ft | 475 kts | 134° |
| 2026-04-22 00:40 | 52.75812 | -1.54111 | 27775 ft | 473 kts | 134° |
| 2026-04-22 00:40 | 52.73512 | -1.50237 | 27515 ft | 472 kts | 134° |
| 2026-04-22 00:40 | 52.71215 | -1.46367 | 27094 ft | 469 kts | 134° |
| 2026-04-22 00:40 | 52.68940 | -1.42542 | 26648 ft | 465 kts | 134° |
| 2026-04-22 00:41 | 52.66671 | -1.38740 | 25966 ft | 463 kts | 134° |
| 2026-04-22 00:41 | 52.64417 | -1.34969 | 25315 ft | 461 kts | 134° |
| 2026-04-22 00:41 | 52.62172 | -1.31222 | 24667 ft | 458 kts | 134° |
| 2026-04-22 00:41 | 52.59963 | -1.27540 | 24048 ft | 455 kts | 134° |
| 2026-04-22 00:42 | 52.57748 | -1.23853 | 23394 ft | 452 kts | 134° |
| 2026-04-22 00:42 | 52.55547 | -1.20196 | 22832 ft | 446 kts | 134° |
| 2026-04-22 00:42 | 52.53378 | -1.16595 | 22313 ft | 439 kts | 134° |
| 2026-04-22 00:42 | 52.51250 | -1.13062 | 21791 ft | 433 kts | 134° |
| 2026-04-22 00:43 | 52.49144 | -1.09572 | 21304 ft | 427 kts | 134° |
| 2026-04-22 00:43 | 52.47059 | -1.06126 | 20808 ft | 422 kts | 134° |
| 2026-04-22 00:43 | 52.45031 | -1.02784 | 20307 ft | 404 kts | 134° |
| 2026-04-22 00:43 | 52.43084 | -0.99582 | 19837 ft | 386 kts | 134° |
| 2026-04-22 00:44 | 52.41229 | -0.96533 | 19376 ft | 369 kts | 134° |
| 2026-04-22 00:44 | 52.39479 | -0.93661 | 18920 ft | 353 kts | 134° |
| 2026-04-22 00:44 | 52.37777 | -0.90868 | 18432 ft | 339 kts | 134° |
| 2026-04-22 00:44 | 52.36125 | -0.88154 | 17976 ft | 337 kts | 134° |
| 2026-04-22 00:45 | 52.34474 | -0.85441 | 17518 ft | 335 kts | 134° |
| 2026-04-22 00:45 | 52.32834 | -0.82749 | 17065 ft | 333 kts | 134° |
| 2026-04-22 00:45 | 52.31203 | -0.80079 | 16619 ft | 332 kts | 134° |
| 2026-04-22 00:45 | 52.29576 | -0.77416 | 16181 ft | 331 kts | 133° |
| 2026-04-22 00:46 | 52.27953 | -0.74763 | 15731 ft | 330 kts | 133° |
| 2026-04-22 00:46 | 52.26329 | -0.72114 | 15300 ft | 328 kts | 133° |
| 2026-04-22 00:46 | 52.24728 | -0.69514 | 14931 ft | 325 kts | 133° |
| 2026-04-22 00:46 | 52.23126 | -0.66907 | 14585 ft | 322 kts | 133° |
| 2026-04-22 00:47 | 52.21553 | -0.64350 | 14306 ft | 316 kts | 133° |
| 2026-04-22 00:47 | 52.20003 | -0.61832 | 13926 ft | 313 kts | 133° |
| 2026-04-22 00:47 | 52.18463 | -0.59335 | 13512 ft | 311 kts | 133° |
| 2026-04-22 00:47 | 52.16945 | -0.56879 | 12906 ft | 305 kts | 133° |
| 2026-04-22 00:48 | 52.15484 | -0.54519 | 12406 ft | 294 kts | 133° |
| 2026-04-22 00:48 | 52.14025 | -0.52167 | 11781 ft | 290 kts | 133° |
| 2026-04-22 00:48 | 52.12636 | -0.49928 | 11446 ft | 277 kts | 133° |
| 2026-04-22 00:48 | 52.11304 | -0.47783 | 11088 ft | 264 kts | 133° |
| 2026-04-22 00:49 | 52.10004 | -0.45689 | 10910 ft | 263 kts | 133° |
| 2026-04-22 00:49 | 52.08710 | -0.43601 | 10776 ft | 262 kts | 133° |
| 2026-04-22 00:49 | 52.07418 | -0.41521 | 10657 ft | 261 kts | 133° |
| 2026-04-22 00:49 | 52.06129 | -0.39447 | 10542 ft | 260 kts | 133° |
| 2026-04-22 00:50 | 52.04844 | -0.37377 | 10426 ft | 260 kts | 133° |
| 2026-04-22 00:50 | 52.03559 | -0.35314 | 10268 ft | 260 kts | 133° |
| 2026-04-22 00:50 | 52.02255 | -0.33224 | 9757 ft | 260 kts | 133° |
| 2026-04-22 00:50 | 52.00983 | -0.31193 | 9291 ft | 257 kts | 133° |
| 2026-04-22 00:51 | 51.99704 | -0.29146 | 8800 ft | 259 kts | 132° |
| 2026-04-22 00:51 | 51.98432 | -0.27108 | 8336 ft | 252 kts | 132° |
| 2026-04-22 00:51 | 51.97215 | -0.25160 | 7794 ft | 247 kts | 132° |
| 2026-04-22 00:51 | 51.96000 | -0.23221 | 7315 ft | 241 kts | 132° |
| 2026-04-22 00:52 | 51.94856 | -0.21406 | 7185 ft | 220 kts | 132° |
| 2026-04-22 00:52 | 51.93792 | -0.19717 | 6890 ft | 211 kts | 131° |
| 2026-04-22 00:52 | 51.92756 | -0.18062 | 6446 ft | 208 kts | 131° |
| 2026-04-22 00:52 | 51.91730 | -0.16420 | 5979 ft | 206 kts | 131° |
| 2026-04-22 00:53 | 51.90709 | -0.14791 | 5520 ft | 206 kts | 131° |
| 2026-04-22 00:53 | 51.89691 | -0.13169 | 5098 ft | 205 kts | 131° |
| 2026-04-22 00:53 | 51.88668 | -0.11541 | 4742 ft | 205 kts | 131° |
| 2026-04-22 00:53 | 51.87690 | -0.09994 | 4597 ft | 189 kts | 131° |
| 2026-04-22 00:54 | 51.86790 | -0.08577 | 4491 ft | 173 kts | 131° |
| 2026-04-22 00:54 | 51.85947 | -0.07246 | 4152 ft | 168 kts | 131° |
| 2026-04-22 00:54 | 51.85115 | -0.05925 | 3894 ft | 167 kts | 131° |
| 2026-04-22 00:54 | 51.84285 | -0.04603 | 3787 ft | 167 kts | 131° |
| 2026-04-22 00:55 | 51.83454 | -0.03285 | 3694 ft | 167 kts | 131° |
| 2026-04-22 00:55 | 51.82620 | -0.01965 | 3611 ft | 167 kts | 131° |
| 2026-04-22 00:55 | 51.80954 | 0.00676 | 3419 ft | 168 kts | 131° |
| 2026-04-22 00:56 | 51.80125 | 0.01987 | 3352 ft | 167 kts | 131° |
| 2026-04-22 00:56 | 51.79301 | 0.03304 | 3253 ft | 167 kts | 128° |
| 2026-04-22 00:56 | 51.78716 | 0.04872 | 3064 ft | 162 kts | 108° |
| 2026-04-22 00:56 | 51.78541 | 0.06635 | 2956 ft | 161 kts | 90° |
| 2026-04-22 00:57 | 51.78783 | 0.08408 | 2820 ft | 164 kts | 70° |
| 2026-04-22 00:57 | 51.79431 | 0.09923 | 2638 ft | 165 kts | 50° |
| 2026-04-22 00:57 | 51.80249 | 0.11138 | 2433 ft | 155 kts | 50° |
| 2026-04-22 00:57 | 51.81012 | 0.12272 | 2234 ft | 141 kts | 50° |
| 2026-04-22 00:58 | 51.81723 | 0.13333 | 2042 ft | 137 kts | 51° |
| 2026-04-22 00:58 | 51.82413 | 0.14366 | 1850 ft | 135 kts | 50° |
| 2026-04-22 00:58 | 51.83100 | 0.15394 | 1660 ft | 134 kts | 49° |
| 2026-04-22 00:58 | 51.83783 | 0.16415 | 1472 ft | 133 kts | 48° |
| 2026-04-22 00:59 | 51.84461 | 0.17429 | 1286 ft | 133 kts | 48° |
| 2026-04-22 00:59 | 51.85140 | 0.18446 | 1088 ft | 133 kts | 45° |
| 2026-04-22 00:59 | 51.85819 | 0.19462 | 897 ft | 132 kts | 44° |
| 2026-04-22 00:59 | 51.86495 | 0.20474 | 705 ft | 132 kts | 43° |
| 2026-04-22 01:00 | 51.87172 | 0.21487 | 540 ft | 132 kts | 44° |
| 2026-04-22 01:00 | 51.87842 | 0.22492 | 351 ft | 129 kts | 43° |
| 2026-04-22 01:00 | 51.88411 | 0.23350 | 336 ft | 92 kts | 43° |
| 2026-04-22 01:00 | 51.88769 | 0.23881 | 337 ft | 55 kts | 43° |
| 2026-04-22 01:01 | 51.88983 | 0.24212 | 337 ft | 32 kts | 46° |
| 2026-04-22 01:01 | 51.89085 | 0.24468 | 338 ft | 26 kts | 66° |
| 2026-04-22 01:01 | 51.89149 | 0.24729 | 348 ft | 20 kts | 71° |
| 2026-04-22 01:01 | 51.89164 | 0.24899 | 342 ft | 15 kts | 88° |
| 2026-04-22 01:02 | 51.89215 | 0.25051 | 351 ft | 16 kts | 53° |
| 2026-04-22 01:02 | 51.89227 | 0.25197 | 350 ft | 14 kts | 127° |
| 2026-04-22 01:02 | 51.89164 | 0.25300 | 344 ft | 8 kts | 135° |
| 2026-04-22 01:02 | 51.89123 | 0.25375 | 337 ft | 9 kts | 118° |
| 2026-04-22 01:03 | 51.89148 | 0.25463 | 353 ft | 9 kts | 51° |
| 2026-04-22 01:03 | 51.89160 | 0.25489 | 346 ft | 0 kts | 54° |